Athens, Georgia
Current Conditions -  °F | °C
As of 12:51 PM on Friday 31 Oct 2014 (Local Time) from KAHN Reporting Station
Clear Clear  
Wind Chill: 64°   Ceiling: Unl
Heat Index: 64°   Visibility: 10mi
Dew Point: 42°   Wind: 3mph
Humidity: 45%   Direction: 280°W
Pressure: 29.89"   Gusts: NA
Location:  33.96°N, 83.37°W
Report Text: KAHN 311651Z 28003KT 10SM CLR 18/06 A2989 RMK AO2 SLP122 T01780056
Loading
Personal Weather Stations






























Interactive Weather Map New forecast layout! Learn more

10-Day Weather Forecast

Advertisements
Track Severe Weather on mobile